PWSweather.com
Personal Weather Stations
Station Observations
SHAHALMS1
Eftra, Falkenberg, HA

EftraFalkenberg, HA

Lat: 56.85, Lon: 12.65

Elevation: 140

Station Type:

http://hem.passagen.se/risarp101

High Low Average
Temperature 62.1°F16.7°C 53.6°F12.0°C 56.8°F13.8°C
Dew Point 54.2°F12.3°C 41.5°F5.3°C 48.9°F9.4°C
Winds 12.9 mph 20.8 kmh 1.5 mph 2.4 kmh 7.0 mph SW11.3 kmh SW
Wind Gusts 26.8 mph43.1 kmh 1.8 mph2.9 kmh 13.0 mph20.9 kmh
Humidity 91% 62% 75%
Pressure 30.04 in1017.3 mb 29.86 in1011.2 mb -
Precipitation 0.43 in10.9 mm - -
Hour Temp Dew Point Humidity Winds Wind Gusts Pressure Precip Precip Rate Daily Precip Total
12:00 AM 55.9°F13.3°C 47.4°F8.6°C 73% 8.2 mph WNW13.2 kmh WNW 23.3 mph37.5 kmh 29.89 in1012.2 mb 0.00 in0.0 mm 0.00 in0.0 mm 0.00 in0.0 mm
12:10 AM 56.1°F13.4°C 47.2°F8.4°C 72% 9.2 mph W14.8 kmh W 23.3 mph37.5 kmh 29.89 in1012.2 mb 0.00 in0.0 mm 0.00 in0.0 mm 0.00 in0.0 mm
12:20 AM 56.1°F13.4°C 46.5°F8.1°C 70% 10.6 mph W17.1 kmh W 24.3 mph39.1 kmh 29.89 in1012.2 mb 0.00 in0.0 mm 0.00 in0.0 mm 0.00 in0.0 mm
12:30 AM 55.9°F13.3°C 46.3°F7.9°C 70% 8.1 mph WNW13.0 kmh WNW 23.3 mph37.5 kmh 29.86 in1011.2 mb 0.00 in0.0 mm 0.00 in0.0 mm 0.00 in0.0 mm
12:40 AM 55.8°F13.2°C 46.1°F7.8°C 70% 7.9 mph W12.7 kmh W 21.1 mph34.0 kmh 29.89 in1012.2 mb 0.00 in0.0 mm 0.00 in0.0 mm 0.00 in0.0 mm
12:50 AM 55.6°F13.1°C 45.9°F7.7°C 70% 8.1 mph W13.0 kmh W 21.8 mph35.1 kmh 29.89 in1012.2 mb 0.00 in0.0 mm 0.00 in0.0 mm 0.00 in0.0 mm
01:00 AM 55.2°F12.9°C 45.2°F7.3°C 69% 8.0 mph WNW12.9 kmh WNW 19.3 mph31.1 kmh 29.89 in1012.2 mb 0.00 in0.0 mm 0.00 in0.0 mm 0.00 in0.0 mm
01:10 AM 55.0°F12.8°C 45.1°F7.3°C 69% 7.6 mph W12.2 kmh W 15.7 mph25.3 kmh 29.89 in1012.2 mb 0.00 in0.0 mm 0.00 in0.0 mm 0.00 in0.0 mm
01:20 AM 55.0°F12.8°C 45.1°F7.3°C 69% 8.1 mph WNW13.0 kmh WNW 18.3 mph29.5 kmh 29.89 in1012.2 mb 0.00 in0.0 mm 0.00 in0.0 mm 0.00 in0.0 mm
01:30 AM 55.2°F12.9°C 45.2°F7.3°C 69% 7.9 mph WNW12.7 kmh WNW 19.3 mph31.1 kmh 29.92 in1013.2 mb 0.00 in0.0 mm 0.00 in0.0 mm 0.00 in0.0 mm
01:40 AM 55.2°F12.9°C 44.8°F7.1°C 68% 10.4 mph WNW16.7 kmh WNW 26.8 mph43.1 kmh 29.92 in1013.2 mb 0.00 in0.0 mm 0.00 in0.0 mm 0.00 in0.0 mm
01:50 AM 55.2°F12.9°C 44.4°F6.9°C 67% 7.0 mph WNW11.3 kmh WNW 17.2 mph27.7 kmh 29.92 in1013.2 mb 0.00 in0.0 mm 0.00 in0.0 mm 0.00 in0.0 mm
02:00 AM 55.2°F12.9°C 44.4°F6.9°C 67% 9.4 mph WNW15.1 kmh WNW 20.8 mph33.5 kmh 29.92 in1013.2 mb 0.00 in0.0 mm 0.00 in0.0 mm 0.00 in0.0 mm
02:10 AM 55.0°F12.8°C 43.9°F6.6°C 66% 7.5 mph WNW12.1 kmh WNW 19.3 mph31.1 kmh 29.92 in1013.2 mb 0.00 in0.0 mm 0.00 in0.0 mm 0.00 in0.0 mm
02:20 AM 54.9°F12.7°C 43.3°F6.3°C 65% 8.5 mph WNW13.7 kmh WNW 17.2 mph27.7 kmh 29.92 in1013.2 mb 0.00 in0.0 mm 0.00 in0.0 mm 0.00 in0.0 mm
02:30 AM 54.9°F12.7°C 42.9°F6.1°C 64% 8.6 mph W13.8 kmh W 20.0 mph32.2 kmh 29.95 in1014.2 mb 0.00 in0.0 mm 0.00 in0.0 mm 0.00 in0.0 mm
02:40 AM 54.9°F12.7°C 42.9°F6.1°C 64% 8.6 mph W13.8 kmh W 19.7 mph31.7 kmh 29.95 in1014.2 mb 0.00 in0.0 mm 0.00 in0.0 mm 0.00 in0.0 mm
02:50 AM 54.9°F12.7°C 42.9°F6.1°C 64% 7.8 mph WNW12.6 kmh WNW 20.4 mph32.8 kmh 29.95 in1014.2 mb 0.00 in0.0 mm 0.00 in0.0 mm 0.00 in0.0 mm
03:00 AM 54.9°F12.7°C 42.5°F5.8°C 63% 7.9 mph WNW12.7 kmh WNW 20.0 mph32.2 kmh 29.95 in1014.2 mb 0.00 in0.0 mm 0.00 in0.0 mm 0.00 in0.0 mm
03:10 AM 54.7°F12.6°C 42.3°F5.7°C 63% 7.3 mph WNW11.7 kmh WNW 23.6 mph38.0 kmh 29.98 in1015.2 mb 0.00 in0.0 mm 0.00 in0.0 mm 0.00 in0.0 mm
03:20 AM 54.7°F12.6°C 42.3°F5.7°C 63% 7.9 mph W12.7 kmh W 17.5 mph28.2 kmh 29.98 in1015.2 mb 0.00 in0.0 mm 0.00 in0.0 mm 0.00 in0.0 mm
03:30 AM 54.7°F12.6°C 42.3°F5.7°C 63% 7.3 mph WNW11.7 kmh WNW 20.4 mph32.8 kmh 29.95 in1014.2 mb 0.00 in0.0 mm 0.00 in0.0 mm 0.00 in0.0 mm
03:40 AM 54.7°F12.6°C 42.3°F5.7°C 63% 6.9 mph WNW11.1 kmh WNW 19.7 mph31.7 kmh 29.95 in1014.2 mb 0.00 in0.0 mm 0.00 in0.0 mm 0.00 in0.0 mm
03:50 AM 54.5°F12.5°C 42.2°F5.7°C 63% 6.8 mph WNW10.9 kmh WNW 21.1 mph34.0 kmh 29.95 in1014.2 mb 0.00 in0.0 mm 0.00 in0.0 mm 0.00 in0.0 mm
04:00 AM 54.5°F12.5°C 42.2°F5.7°C 63% 6.2 mph WNW10.0 kmh WNW 13.6 mph21.9 kmh 29.92 in1013.2 mb 0.00 in0.0 mm 0.00 in0.0 mm 0.00 in0.0 mm
04:10 AM 54.3°F12.4°C 41.6°F5.3°C 62% 6.4 mph W10.3 kmh W 15.7 mph25.3 kmh 29.92 in1013.2 mb 0.00 in0.0 mm 0.00 in0.0 mm 0.00 in0.0 mm
04:20 AM 54.3°F12.4°C 41.6°F5.3°C 62% 6.7 mph W10.8 kmh W 15.4 mph24.8 kmh 29.92 in1013.2 mb 0.00 in0.0 mm 0.00 in0.0 mm 0.00 in0.0 mm
04:30 AM 54.3°F12.4°C 42.0°F5.6°C 63% 6.2 mph W10.0 kmh W 17.5 mph28.2 kmh 29.95 in1014.2 mb 0.00 in0.0 mm 0.00 in0.0 mm 0.00 in0.0 mm
04:40 AM 54.1°F12.3°C 41.8°F5.4°C 63% 5.8 mph WNW9.3 kmh WNW 16.1 mph25.9 kmh 29.95 in1014.2 mb 0.00 in0.0 mm 0.00 in0.0 mm 0.00 in0.0 mm
04:50 AM 54.0°F12.2°C 41.6°F5.3°C 63% 5.7 mph W9.2 kmh W 14.0 mph22.5 kmh 29.95 in1014.2 mb 0.00 in0.0 mm 0.00 in0.0 mm 0.00 in0.0 mm
05:00 AM 54.0°F12.2°C 41.6°F5.3°C 63% 6.5 mph WNW10.5 kmh WNW 20.8 mph33.5 kmh 29.95 in1014.2 mb 0.00 in0.0 mm 0.00 in0.0 mm 0.00 in0.0 mm
05:10 AM 53.8°F12.1°C 41.5°F5.3°C 63% 6.5 mph W10.5 kmh W 15.7 mph25.3 kmh 29.98 in1015.2 mb 0.00 in0.0 mm 0.00 in0.0 mm 0.00 in0.0 mm
05:20 AM 53.8°F12.1°C 41.5°F5.3°C 63% 6.1 mph W9.8 kmh W 15.4 mph24.8 kmh 29.98 in1015.2 mb 0.00 in0.0 mm 0.00 in0.0 mm 0.00 in0.0 mm
05:30 AM 54.0°F12.2°C 42.1°F5.6°C 64% 5.1 mph WNW8.2 kmh WNW 17.2 mph27.7 kmh 29.98 in1015.2 mb 0.00 in0.0 mm 0.00 in0.0 mm 0.00 in0.0 mm
05:40 AM 53.8°F12.1°C 41.9°F5.5°C 64% 4.5 mph W7.2 kmh W 12.5 mph20.1 kmh 29.98 in1015.2 mb 0.00 in0.0 mm 0.00 in0.0 mm 0.00 in0.0 mm
05:50 AM 53.6°F12.0°C 42.1°F5.6°C 65% 5.7 mph WNW9.2 kmh WNW 14.3 mph23.0 kmh 29.98 in1015.2 mb 0.00 in0.0 mm 0.00 in0.0 mm 0.00 in0.0 mm
06:00 AM 54.0°F12.2°C 42.9°F6.1°C 66% 5.4 mph WNW8.7 kmh WNW 13.6 mph21.9 kmh 29.98 in1015.2 mb 0.00 in0.0 mm 0.00 in0.0 mm 0.00 in0.0 mm
06:10 AM 54.3°F12.4°C 43.2°F6.2°C 66% 6.0 mph WNW9.7 kmh WNW 13.6 mph21.9 kmh 30.01 in1016.3 mb 0.00 in0.0 mm 0.00 in0.0 mm 0.00 in0.0 mm
06:20 AM 54.5°F12.5°C 43.4°F6.3°C 66% 7.1 mph WNW11.4 kmh WNW 20.4 mph32.8 kmh 30.01 in1016.3 mb 0.00 in0.0 mm 0.00 in0.0 mm 0.00 in0.0 mm
06:30 AM 54.7°F12.6°C 43.9°F6.6°C 67% 4.4 mph W7.1 kmh W 5.4 mph8.7 kmh 30.01 in1016.3 mb 0.00 in0.0 mm 0.00 in0.0 mm 0.00 in0.0 mm
06:40 AM 54.9°F12.7°C 44.5°F6.9°C 68% 5.3 mph W8.5 kmh W 10.0 mph16.1 kmh 30.04 in1017.3 mb 0.00 in0.0 mm 0.00 in0.0 mm 0.00 in0.0 mm
06:50 AM 55.2°F12.9°C 45.2°F7.3°C 69% 8.1 mph W13.0 kmh W 10.0 mph16.1 kmh 30.04 in1017.3 mb 0.00 in0.0 mm 0.00 in0.0 mm 0.00 in0.0 mm
07:00 AM 55.2°F12.9°C 45.2°F7.3°C 69% 8.1 mph W13.0 kmh W 10.0 mph16.1 kmh 30.01 in1016.3 mb 0.00 in0.0 mm 0.00 in0.0 mm 0.00 in0.0 mm
07:10 AM 55.6°F13.1°C 45.9°F7.7°C 70% 8.1 mph W13.0 kmh W 10.0 mph16.1 kmh 30.01 in1016.3 mb 0.00 in0.0 mm 0.00 in0.0 mm 0.00 in0.0 mm
07:20 AM 55.9°F13.3°C 46.3°F7.9°C 70% 1.5 mph W2.4 kmh W 1.8 mph2.9 kmh 30.01 in1016.3 mb 0.00 in0.0 mm 0.00 in0.0 mm 0.00 in0.0 mm
07:30 AM 56.1°F13.4°C 46.1°F7.8°C 69% 1.5 mph W2.4 kmh W 1.8 mph2.9 kmh 30.01 in1016.3 mb 0.00 in0.0 mm 0.00 in0.0 mm 0.00 in0.0 mm
07:40 AM 56.5°F13.6°C 46.4°F8.0°C 69% 3.2 mph W5.1 kmh W 4.7 mph7.6 kmh 29.98 in1015.2 mb 0.00 in0.0 mm 0.00 in0.0 mm 0.00 in0.0 mm
07:50 AM 57.4°F14.1°C 46.5°F8.1°C 67% 4.9 mph W7.9 kmh W 11.8 mph19.0 kmh 29.98 in1015.2 mb 0.00 in0.0 mm 0.00 in0.0 mm 0.00 in0.0 mm
08:00 AM 57.7°F14.3°C 46.9°F8.3°C 67% 9.6 mph W15.4 kmh W 11.8 mph19.0 kmh 30.01 in1016.3 mb 0.00 in0.0 mm 0.00 in0.0 mm 0.00 in0.0 mm
08:10 AM 58.1°F14.5°C 47.2°F8.4°C 67% 8.8 mph W14.2 kmh W 11.8 mph19.0 kmh 30.01 in1016.3 mb 0.00 in0.0 mm 0.00 in0.0 mm 0.00 in0.0 mm
08:20 AM 58.6°F14.8°C 47.3°F8.5°C 66% 7.3 mph W11.7 kmh W 8.9 mph14.3 kmh 30.01 in1016.3 mb 0.00 in0.0 mm 0.00 in0.0 mm 0.00 in0.0 mm
08:30 AM 59.0°F15.0°C 47.7°F8.7°C 66% 7.3 mph W11.7 kmh W 8.9 mph14.3 kmh 30.01 in1016.3 mb 0.00 in0.0 mm 0.00 in0.0 mm 0.00 in0.0 mm
08:40 AM 59.0°F15.0°C 47.2°F8.4°C 65% 6.3 mph WSW10.1 kmh WSW 8.9 mph14.3 kmh 30.01 in1016.3 mb 0.00 in0.0 mm 0.00 in0.0 mm 0.00 in0.0 mm
08:50 AM 59.7°F15.4°C 47.9°F8.8°C 65% 7.3 mph S11.7 kmh S 8.9 mph14.3 kmh 30.01 in1016.3 mb 0.00 in0.0 mm 0.00 in0.0 mm 0.00 in0.0 mm
09:00 AM 60.1°F15.6°C 48.3°F9.1°C 65% 5.1 mph SW8.2 kmh SW 9.3 mph15.0 kmh 30.01 in1016.3 mb 0.00 in0.0 mm 0.00 in0.0 mm 0.00 in0.0 mm
09:10 AM 60.8°F16.0°C 49.0°F9.4°C 65% 6.1 mph W9.8 kmh W 12.2 mph19.6 kmh 30.01 in1016.3 mb 0.00 in0.0 mm 0.00 in0.0 mm 0.00 in0.0 mm
09:20 AM 61.0°F16.1°C 48.7°F9.3°C 64% 7.1 mph WSW11.4 kmh WSW 11.8 mph19.0 kmh 30.01 in1016.3 mb 0.00 in0.0 mm 0.00 in0.0 mm 0.00 in0.0 mm
09:30 AM 60.8°F16.0°C 48.5°F9.2°C 64% 2.9 mph WSW4.7 kmh WSW 6.8 mph10.9 kmh 30.01 in1016.3 mb 0.00 in0.0 mm 0.00 in0.0 mm 0.00 in0.0 mm
09:40 AM 60.4°F15.8°C 48.2°F9.0°C 64% 2.6 mph W4.2 kmh W 3.2 mph5.1 kmh 30.04 in1017.3 mb 0.00 in0.0 mm 0.00 in0.0 mm 0.00 in0.0 mm
09:50 AM 60.4°F15.8°C 48.6°F9.2°C 65% 2.6 mph W4.2 kmh W 3.2 mph5.1 kmh 30.04 in1017.3 mb 0.00 in0.0 mm 0.00 in0.0 mm 0.00 in0.0 mm
10:00 AM 59.5°F15.3°C 48.2°F9.0°C 66% 2.6 mph W4.2 kmh W 3.2 mph5.1 kmh 30.04 in1017.3 mb 0.00 in0.0 mm 0.00 in0.0 mm 0.00 in0.0 mm
10:10 AM 59.9°F15.5°C 49.3°F9.6°C 68% 5.5 mph W8.9 kmh W 6.8 mph10.9 kmh 30.04 in1017.3 mb 0.00 in0.0 mm 0.00 in0.0 mm 0.00 in0.0 mm
10:20 AM 60.8°F16.0°C 50.2°F10.1°C 68% 5.5 mph W8.9 kmh W 6.8 mph10.9 kmh 30.04 in1017.3 mb 0.00 in0.0 mm 0.00 in0.0 mm 0.00 in0.0 mm
10:30 AM 61.5°F16.4°C 50.5°F10.3°C 67% 5.5 mph W8.9 kmh W 6.8 mph10.9 kmh 30.04 in1017.3 mb 0.00 in0.0 mm 0.00 in0.0 mm 0.00 in0.0 mm
10:40 AM 61.9°F16.6°C 50.8°F10.4°C 67% 4.9 mph W7.9 kmh W 6.1 mph9.8 kmh 30.04 in1017.3 mb 0.00 in0.0 mm 0.00 in0.0 mm 0.00 in0.0 mm
10:50 AM 61.9°F16.6°C 50.4°F10.2°C 66% 4.9 mph WSW7.9 kmh WSW 6.1 mph9.8 kmh 30.04 in1017.3 mb 0.00 in0.0 mm 0.00 in0.0 mm 0.00 in0.0 mm
11:00 AM 61.3°F16.3°C 50.3°F10.2°C 67% 4.5 mph S7.2 kmh S 11.5 mph18.5 kmh 30.04 in1017.3 mb 0.00 in0.0 mm 0.00 in0.0 mm 0.00 in0.0 mm
11:10 AM 61.0°F16.1°C 49.5°F9.7°C 66% 9.3 mph S15.0 kmh S 11.5 mph18.5 kmh 30.01 in1016.3 mb 0.00 in0.0 mm 0.00 in0.0 mm 0.00 in0.0 mm
11:20 AM 61.3°F16.3°C 49.9°F9.9°C 66% 9.3 mph S15.0 kmh S 11.5 mph18.5 kmh 30.01 in1016.3 mb 0.00 in0.0 mm 0.00 in0.0 mm 0.00 in0.0 mm
11:30 AM 62.1°F16.7°C 51.4°F10.8°C 68% 9.3 mph S15.0 kmh S 11.5 mph18.5 kmh 30.01 in1016.3 mb 0.00 in0.0 mm 0.00 in0.0 mm 0.00 in0.0 mm
11:40 AM 62.1°F16.7°C 51.4°F10.8°C 68% 9.3 mph S15.0 kmh S 11.5 mph18.5 kmh 30.01 in1016.3 mb 0.00 in0.0 mm 0.00 in0.0 mm 0.00 in0.0 mm
11:50 AM 61.2°F16.2°C 50.5°F10.3°C 68% 9.3 mph S15.0 kmh S 11.5 mph18.5 kmh 30.01 in1016.3 mb 0.00 in0.0 mm 0.00 in0.0 mm 0.00 in0.0 mm
12:00 PM 59.7°F15.4°C 50.3°F10.2°C 71% 7.9 mph SW12.7 kmh SW 17.2 mph27.7 kmh 30.01 in1016.3 mb 0.00 in0.0 mm 0.00 in0.0 mm 0.00 in0.0 mm
12:10 PM 58.5°F14.7°C 50.2°F10.1°C 74% 6.5 mph SW10.5 kmh SW 17.2 mph27.7 kmh 30.04 in1017.3 mb 0.05 in1.3 mm 0.30 in7.6 mm 0.05 in1.3 mm
12:20 PM 57.2°F14.0°C 49.3°F9.6°C 75% 4.1 mph SSW6.6 kmh SSW 10.0 mph16.1 kmh 30.04 in1017.3 mb 0.09 in2.3 mm 0.24 in6.1 mm 0.09 in2.3 mm
12:30 PM 57.0°F13.9°C 50.9°F10.5°C 80% 5.6 mph SSW9.0 kmh SSW 9.7 mph15.6 kmh 30.04 in1017.3 mb 0.14 in3.6 mm 0.30 in7.6 mm 0.14 in3.6 mm
12:40 PM 57.2°F14.0°C 51.8°F11.0°C 82% 5.5 mph SSW8.9 kmh SSW 10.7 mph17.2 kmh 30.01 in1016.3 mb 0.14 in3.6 mm 0.00 in0.0 mm 0.14 in3.6 mm
12:50 PM 57.6°F14.2°C 52.8°F11.6°C 84% 6.4 mph S10.3 kmh S 20.4 mph32.8 kmh 30.01 in1016.3 mb 0.14 in3.6 mm 0.00 in0.0 mm 0.14 in3.6 mm
01:00 PM 57.7°F14.3°C 52.9°F11.6°C 84% 5.3 mph SW8.5 kmh SW 12.2 mph19.6 kmh 30.04 in1017.3 mb 0.14 in3.6 mm 0.00 in0.0 mm 0.14 in3.6 mm
01:10 PM 57.7°F14.3°C 52.6°F11.4°C 83% 4.7 mph SSW7.6 kmh SSW 8.6 mph13.8 kmh 30.01 in1016.3 mb 0.09 in2.3 mm 0.00 in0.0 mm 0.14 in3.6 mm
01:20 PM 58.1°F14.5°C 53.0°F11.7°C 83% 4.0 mph S6.4 kmh S 6.1 mph9.8 kmh 30.01 in1016.3 mb 0.05 in1.3 mm 0.00 in0.0 mm 0.14 in3.6 mm
01:30 PM 58.3°F14.6°C 53.1°F11.7°C 83% 4.9 mph S7.9 kmh S 6.1 mph9.8 kmh 30.01 in1016.3 mb 0.00 in0.0 mm 0.00 in0.0 mm 0.14 in3.6 mm
01:40 PM 58.5°F14.7°C 53.0°F11.7°C 82% 4.9 mph S7.9 kmh S 6.1 mph9.8 kmh 30.01 in1016.3 mb 0.00 in0.0 mm 0.00 in0.0 mm 0.14 in3.6 mm
01:50 PM 58.8°F14.9°C 53.3°F11.8°C 82% 4.9 mph S7.9 kmh S 6.1 mph9.8 kmh 30.01 in1016.3 mb 0.00 in0.0 mm 0.00 in0.0 mm 0.14 in3.6 mm
02:00 PM 59.7°F15.4°C 54.2°F12.3°C 82% 8.1 mph S13.0 kmh S 10.0 mph16.1 kmh 30.01 in1016.3 mb 0.00 in0.0 mm 0.00 in0.0 mm 0.14 in3.6 mm
02:10 PM 59.9°F15.5°C 54.1°F12.3°C 81% 7.3 mph S11.7 kmh S 16.1 mph25.9 kmh 30.01 in1016.3 mb 0.00 in0.0 mm 0.00 in0.0 mm 0.14 in3.6 mm
02:20 PM 60.1°F15.6°C 53.9°F12.2°C 80% 5.4 mph S8.7 kmh S 8.9 mph14.3 kmh 30.01 in1016.3 mb 0.00 in0.0 mm 0.00 in0.0 mm 0.14 in3.6 mm
02:30 PM 60.3°F15.7°C 53.7°F12.1°C 79% 3.9 mph SSW6.3 kmh SSW 8.6 mph13.8 kmh 29.98 in1015.2 mb 0.00 in0.0 mm 0.00 in0.0 mm 0.14 in3.6 mm
02:40 PM 60.6°F15.9°C 53.7°F12.1°C 78% 2.9 mph SW4.7 kmh SW 6.8 mph10.9 kmh 30.01 in1016.3 mb 0.00 in0.0 mm 0.00 in0.0 mm 0.14 in3.6 mm
02:50 PM 60.6°F15.9°C 53.4°F11.9°C 77% 5.5 mph W8.9 kmh W 6.8 mph10.9 kmh 30.01 in1016.3 mb 0.00 in0.0 mm 0.00 in0.0 mm 0.14 in3.6 mm
03:00 PM 60.4°F15.8°C 53.2°F11.8°C 77% 6.7 mph SW10.8 kmh SW 12.2 mph19.6 kmh 30.01 in1016.3 mb 0.00 in0.0 mm 0.00 in0.0 mm 0.14 in3.6 mm
03:10 PM 60.6°F15.9°C 53.7°F12.1°C 78% 7.3 mph S11.7 kmh S 12.2 mph19.6 kmh 30.01 in1016.3 mb 0.00 in0.0 mm 0.00 in0.0 mm 0.14 in3.6 mm
03:20 PM 60.4°F15.8°C 53.5°F11.9°C 78% 4.7 mph S7.6 kmh S 8.9 mph14.3 kmh 30.01 in1016.3 mb 0.00 in0.0 mm 0.00 in0.0 mm 0.14 in3.6 mm
03:30 PM 60.3°F15.7°C 53.4°F11.9°C 78% 7.3 mph S11.7 kmh S 8.9 mph14.3 kmh 30.01 in1016.3 mb 0.00 in0.0 mm 0.00 in0.0 mm 0.14 in3.6 mm
03:40 PM 60.8°F16.0°C 54.2°F12.3°C 79% 3.4 mph S5.5 kmh S 8.6 mph13.8 kmh 30.01 in1016.3 mb 0.00 in0.0 mm 0.00 in0.0 mm 0.14 in3.6 mm
03:50 PM 60.6°F15.9°C 53.7°F12.1°C 78% 7.0 mph S11.3 kmh S 8.6 mph13.8 kmh 30.01 in1016.3 mb 0.00 in0.0 mm 0.00 in0.0 mm 0.14 in3.6 mm
04:00 PM 60.1°F15.6°C 52.8°F11.6°C 77% 7.0 mph S11.3 kmh S 8.6 mph13.8 kmh 30.01 in1016.3 mb 0.00 in0.0 mm 0.00 in0.0 mm 0.14 in3.6 mm
04:10 PM 57.7°F14.3°C 51.3°F10.7°C 79% 12.9 mph S20.8 kmh S 20.8 mph33.5 kmh 30.01 in1016.3 mb 0.06 in1.5 mm 0.36 in9.1 mm 0.20 in5.1 mm
04:20 PM 57.0°F13.9°C 51.2°F10.7°C 81% 7.5 mph S12.1 kmh S 16.5 mph26.6 kmh 30.01 in1016.3 mb 0.06 in1.5 mm 0.00 in0.0 mm 0.20 in5.1 mm
04:30 PM 56.7°F13.7°C 51.6°F10.9°C 83% 6.4 mph S10.3 kmh S 12.5 mph20.1 kmh 30.01 in1016.3 mb 0.06 in1.5 mm 0.00 in0.0 mm 0.20 in5.1 mm
04:40 PM 57.0°F13.9°C 52.6°F11.4°C 85% 4.2 mph S6.8 kmh S 10.4 mph16.7 kmh 30.01 in1016.3 mb 0.06 in1.5 mm 0.00 in0.0 mm 0.20 in5.1 mm
04:50 PM 56.7°F13.7°C 52.2°F11.2°C 85% 6.1 mph S9.8 kmh S 12.5 mph20.1 kmh 30.01 in1016.3 mb 0.06 in1.5 mm 0.00 in0.0 mm 0.20 in5.1 mm
05:00 PM 56.3°F13.5°C 51.8°F11.0°C 85% 5.9 mph S9.5 kmh S 10.0 mph16.1 kmh 30.01 in1016.3 mb 0.06 in1.5 mm 0.00 in0.0 mm 0.20 in5.1 mm
05:10 PM 56.1°F13.4°C 51.4°F10.8°C 84% 8.0 mph S12.9 kmh S 10.0 mph16.1 kmh 30.01 in1016.3 mb 0.00 in0.0 mm 0.00 in0.0 mm 0.20 in5.1 mm
05:20 PM 56.5°F13.6°C 52.3°F11.3°C 86% 7.6 mph W12.2 kmh W 9.3 mph15.0 kmh 30.01 in1016.3 mb 0.00 in0.0 mm 0.00 in0.0 mm 0.20 in5.1 mm
05:30 PM 56.8°F13.8°C 53.0°F11.7°C 87% 8.1 mph SSW13.0 kmh SSW 12.5 mph20.1 kmh 30.01 in1016.3 mb 0.00 in0.0 mm 0.00 in0.0 mm 0.20 in5.1 mm
05:40 PM 56.7°F13.7°C 52.5°F11.4°C 86% 8.9 mph S14.3 kmh S 13.6 mph21.9 kmh 30.01 in1016.3 mb 0.00 in0.0 mm 0.00 in0.0 mm 0.20 in5.1 mm
05:50 PM 56.3°F13.5°C 51.8°F11.0°C 85% 6.0 mph W9.7 kmh W 9.3 mph15.0 kmh 30.01 in1016.3 mb 0.00 in0.0 mm 0.00 in0.0 mm 0.20 in5.1 mm
06:00 PM 56.1°F13.4°C 52.0°F11.1°C 86% 6.6 mph S10.6 kmh S 12.5 mph20.1 kmh 30.01 in1016.3 mb 0.00 in0.0 mm 0.00 in0.0 mm 0.20 in5.1 mm
06:10 PM 56.1°F13.4°C 52.0°F11.1°C 86% 5.7 mph S9.2 kmh S 8.9 mph14.3 kmh 30.01 in1016.3 mb 0.00 in0.0 mm 0.00 in0.0 mm 0.20 in5.1 mm
06:20 PM 55.9°F13.3°C 51.8°F11.0°C 86% 5.7 mph S9.2 kmh S 9.3 mph15.0 kmh 30.01 in1016.3 mb 0.00 in0.0 mm 0.00 in0.0 mm 0.20 in5.1 mm
06:30 PM 55.8°F13.2°C 51.6°F10.9°C 86% 5.3 mph S8.5 kmh S 9.7 mph15.6 kmh 30.01 in1016.3 mb 0.05 in1.3 mm 0.30 in7.6 mm 0.24 in6.1 mm
06:40 PM 55.6°F13.1°C 51.1°F10.6°C 85% 5.5 mph S8.9 kmh S 9.7 mph15.6 kmh 30.01 in1016.3 mb 0.05 in1.3 mm 0.00 in0.0 mm 0.24 in6.1 mm
06:50 PM 55.6°F13.1°C 51.1°F10.6°C 85% 4.5 mph S7.2 kmh S 5.7 mph9.2 kmh 30.01 in1016.3 mb 0.05 in1.3 mm 0.00 in0.0 mm 0.24 in6.1 mm
07:00 PM 55.6°F13.1°C 51.5°F10.8°C 86% 4.7 mph S7.6 kmh S 5.7 mph9.2 kmh 30.01 in1016.3 mb 0.05 in1.3 mm 0.00 in0.0 mm 0.24 in6.1 mm
07:10 PM 55.8°F13.2°C 51.9°F11.1°C 87% 4.7 mph S7.6 kmh S 5.7 mph9.2 kmh 30.01 in1016.3 mb 0.05 in1.3 mm 0.00 in0.0 mm 0.24 in6.1 mm
07:20 PM 55.8°F13.2°C 51.9°F11.1°C 87% 5.2 mph S8.4 kmh S 6.4 mph10.3 kmh 30.01 in1016.3 mb 0.05 in1.3 mm 0.00 in0.0 mm 0.24 in6.1 mm
07:30 PM 55.6°F13.1°C 51.8°F11.0°C 87% 6.8 mph S10.9 kmh S 11.8 mph19.0 kmh 30.01 in1016.3 mb 0.00 in0.0 mm 0.00 in0.0 mm 0.24 in6.1 mm
07:40 PM 55.4°F13.0°C 51.6°F10.9°C 87% 3.5 mph S5.6 kmh S 4.3 mph6.9 kmh 30.01 in1016.3 mb 0.00 in0.0 mm 0.00 in0.0 mm 0.24 in6.1 mm
07:50 PM 55.4°F13.0°C 51.9°F11.1°C 88% 6.5 mph S10.5 kmh S 10.0 mph16.1 kmh 30.01 in1016.3 mb 0.00 in0.0 mm 0.00 in0.0 mm 0.24 in6.1 mm
08:00 PM 55.6°F13.1°C 52.4°F11.3°C 89% 7.1 mph S11.4 kmh S 12.9 mph20.8 kmh 29.98 in1015.2 mb 0.00 in0.0 mm 0.00 in0.0 mm 0.24 in6.1 mm
08:10 PM 55.4°F13.0°C 52.2°F11.2°C 89% 5.9 mph S9.5 kmh S 11.5 mph18.5 kmh 29.98 in1015.2 mb 0.00 in0.0 mm 0.00 in0.0 mm 0.24 in6.1 mm
08:20 PM 55.6°F13.1°C 52.4°F11.3°C 89% 6.1 mph S9.8 kmh S 13.6 mph21.9 kmh 29.98 in1015.2 mb 0.00 in0.0 mm 0.00 in0.0 mm 0.24 in6.1 mm
08:30 PM 55.6°F13.1°C 52.4°F11.3°C 89% 6.8 mph S10.9 kmh S 14.0 mph22.5 kmh 29.98 in1015.2 mb 0.05 in1.3 mm 0.30 in7.6 mm 0.29 in7.4 mm
08:40 PM 55.4°F13.0°C 52.2°F11.2°C 89% 9.2 mph S14.8 kmh S 23.6 mph38.0 kmh 29.98 in1015.2 mb 0.09 in2.3 mm 0.24 in6.1 mm 0.33 in8.4 mm
08:50 PM 55.4°F13.0°C 52.5°F11.4°C 90% 7.9 mph S12.7 kmh S 15.4 mph24.8 kmh 29.98 in1015.2 mb 0.09 in2.3 mm 0.00 in0.0 mm 0.33 in8.4 mm
09:00 PM 55.2°F12.9°C 52.3°F11.3°C 90% 8.3 mph S13.4 kmh S 24.7 mph39.8 kmh 29.98 in1015.2 mb 0.09 in2.3 mm 0.00 in0.0 mm 0.33 in8.4 mm
09:10 PM 55.0°F12.8°C 52.2°F11.2°C 90% 5.9 mph S9.5 kmh S 12.2 mph19.6 kmh 29.98 in1015.2 mb 0.14 in3.6 mm 0.30 in7.6 mm 0.38 in9.7 mm
09:20 PM 54.9°F12.7°C 52.0°F11.1°C 90% 6.6 mph S10.6 kmh S 10.4 mph16.7 kmh 29.98 in1015.2 mb 0.14 in3.6 mm 0.00 in0.0 mm 0.38 in9.7 mm
09:30 PM 55.0°F12.8°C 52.2°F11.2°C 90% 8.1 mph S13.0 kmh S 14.7 mph23.7 kmh 29.95 in1014.2 mb 0.09 in2.3 mm 0.00 in0.0 mm 0.38 in9.7 mm
09:40 PM 55.2°F12.9°C 52.6°F11.4°C 91% 7.4 mph S11.9 kmh S 13.6 mph21.9 kmh 29.95 in1014.2 mb 0.05 in1.3 mm 0.00 in0.0 mm 0.38 in9.7 mm
09:50 PM 55.4°F13.0°C 52.8°F11.6°C 91% 7.5 mph S12.1 kmh S 17.2 mph27.7 kmh 29.95 in1014.2 mb 0.05 in1.3 mm 0.00 in0.0 mm 0.38 in9.7 mm
10:00 PM 55.0°F12.8°C 52.2°F11.2°C 90% 4.9 mph S7.9 kmh S 6.1 mph9.8 kmh 29.95 in1014.2 mb 0.05 in1.3 mm 0.00 in0.0 mm 0.38 in9.7 mm
10:10 PM 55.0°F12.8°C 52.5°F11.4°C 91% 5.6 mph S9.0 kmh S 9.3 mph15.0 kmh 29.95 in1014.2 mb 0.00 in0.0 mm 0.00 in0.0 mm 0.38 in9.7 mm
10:20 PM 55.0°F12.8°C 52.2°F11.2°C 90% 6.4 mph S10.3 kmh S 7.9 mph12.7 kmh 29.95 in1014.2 mb 0.05 in1.3 mm 0.30 in7.6 mm 0.43 in10.9 mm
10:30 PM 54.9°F12.7°C 51.7°F10.9°C 89% 9.6 mph S15.4 kmh S 17.2 mph27.7 kmh 29.95 in1014.2 mb 0.05 in1.3 mm 0.00 in0.0 mm 0.43 in10.9 mm
10:40 PM 54.9°F12.7°C 51.7°F10.9°C 89% 9.5 mph SW15.3 kmh SW 12.9 mph20.8 kmh 29.95 in1014.2 mb 0.05 in1.3 mm 0.00 in0.0 mm 0.43 in10.9 mm
10:50 PM 54.9°F12.7°C 51.4°F10.8°C 88% 8.9 mph S14.3 kmh S 14.0 mph22.5 kmh 29.95 in1014.2 mb 0.05 in1.3 mm 0.00 in0.0 mm 0.43 in10.9 mm
11:00 PM 55.0°F12.8°C 51.5°F10.8°C 88% 10.0 mph S16.1 kmh S 14.0 mph22.5 kmh 29.92 in1013.2 mb 0.05 in1.3 mm 0.00 in0.0 mm 0.44 in11.2 mm
11:10 PM 54.9°F12.7°C 51.4°F10.8°C 88% 7.3 mph S11.7 kmh S 8.9 mph14.3 kmh 29.95 in1014.2 mb 0.05 in1.3 mm 0.00 in0.0 mm 0.44 in11.2 mm
11:20 PM 55.0°F12.8°C 51.5°F10.8°C 88% 5.9 mph S9.5 kmh S 8.9 mph14.3 kmh 29.95 in1014.2 mb 0.00 in0.0 mm 0.00 in0.0 mm 0.44 in11.2 mm
11:30 PM 55.0°F12.8°C 51.5°F10.8°C 88% 6.3 mph S10.1 kmh S 9.3 mph15.0 kmh 29.95 in1014.2 mb 0.00 in0.0 mm 0.00 in0.0 mm 0.44 in11.2 mm
11:40 PM 55.0°F12.8°C 51.5°F10.8°C 88% 4.8 mph S7.7 kmh S 10.0 mph16.1 kmh 29.95 in1014.2 mb 0.00 in0.0 mm 0.00 in0.0 mm 0.44 in11.2 mm
11:50 PM 54.9°F12.7°C 51.7°F10.9°C 89% 7.3 mph S11.7 kmh S 12.9 mph20.8 kmh 29.95 in1014.2 mb 0.05 in1.3 mm 0.30 in7.6 mm 0.05 in1.3 mm